createdAt,value
2019-04-27T00:02:26.323Z,62430.12
2019-04-27T00:10:33.513Z,62422.74
2019-04-27T00:13:03.910Z,62424.03
2019-04-27T00:15:48.166Z,62417.79
2019-04-27T00:18:34.264Z,62416.70
2019-04-27T00:21:20.286Z,62415.82
2019-04-27T00:26:20.748Z,62412.37
2019-04-27T00:28:47.016Z,62413.86
2019-04-27T00:31:13.321Z,62412.57
2019-04-27T00:33:39.592Z,62417.53
2019-04-27T00:39:03.506Z,62412.09
2019-04-27T00:44:09.368Z,62411.00
2019-04-27T00:46:35.669Z,62407.14
2019-04-27T00:49:03.577Z,62409.93
2019-04-27T00:51:30.112Z,62405.39
2019-04-27T00:53:56.463Z,62399.76
2019-04-27T00:56:42.984Z,62398.67
2019-04-27T00:59:28.971Z,62396.29
2019-04-27T01:02:15.007Z,62397.38
2019-04-27T01:07:43.455Z,62398.12
2019-04-27T01:10:10.462Z,62393.93
2019-04-27T01:12:36.725Z,62393.78
2019-04-27T01:17:53.288Z,62391.82
2019-04-27T01:20:19.530Z,62388.37
2019-04-27T01:22:45.792Z,62387.08
2019-04-27T01:31:44.197Z,62392.16
2019-04-27T01:34:10.457Z,62390.88
2019-04-27T01:36:36.720Z,62389.24
2019-04-27T01:39:44.270Z,62388.91
2019-04-27T01:42:10.693Z,62387.28
2019-04-27T01:44:36.992Z,62385.12
2019-04-27T01:47:03.245Z,62382.96
2019-04-27T01:49:29.662Z,62377.26
2019-04-27T01:51:55.932Z,62383.02
2019-04-27T01:57:00.973Z,62378.07
2019-04-27T01:59:28.258Z,62390.59
2019-04-27T02:05:03.459Z,62375.89
2019-04-27T02:07:30.129Z,62367.49
2019-04-27T02:09:56.455Z,62369.19
2019-04-27T02:12:22.692Z,62369.39
2019-04-27T02:14:49.216Z,62369.06
2019-04-27T02:17:15.469Z,62367.42
2019-04-27T02:19:41.716Z,62370.74
2019-04-27T02:22:08.576Z,62367.42
2019-04-27T02:24:36.118Z,62368.71
2019-04-27T02:27:02.373Z,62365.27
2019-04-27T02:29:48.778Z,62366.20
2019-04-27T02:37:30.203Z,62360.31
2019-04-27T02:39:55.745Z,62358.89
2019-04-27T02:44:59.902Z,62364.37
2019-04-27T02:47:29.465Z,62360.31
2019-04-27T02:49:55.731Z,62358.89
2019-04-27T02:52:41.744Z,62360.51
2019-04-27T02:55:09.554Z,62361.40
2019-04-27T02:57:36.270Z,62370.67
2019-04-27T03:00:24.053Z,62369.00
2019-04-27T03:05:39.937Z,62382.80
2019-04-27T03:08:06.062Z,62384.92
2019-04-27T03:10:32.315Z,62389.05
2019-04-27T03:16:05.930Z,62402.46
2019-04-27T03:18:51.936Z,62404.98
2019-04-27T03:23:52.403Z,62407.81
2019-04-27T03:26:38.992Z,62414.34
2019-04-27T03:29:06.625Z,62421.11
2019-04-27T03:31:33.290Z,62422.20
2019-04-27T03:34:05.144Z,62425.38
2019-04-27T03:36:31.675Z,62428.44
2019-04-27T03:38:59.913Z,62436.04
2019-04-27T03:41:25.656Z,62444.37
2019-04-27T03:43:51.894Z,62451.43
2019-04-27T03:46:20.403Z,62463.57
2019-04-27T03:48:46.307Z,62474.62
2019-04-27T03:54:22.224Z,62500.87
2019-04-27T04:00:01.712Z,62518.18
2019-04-27T04:05:19.823Z,62549.12
2019-04-27T04:07:46.237Z,62564.53
2019-04-27T04:18:19.613Z,62618.19
2019-04-27T04:20:46.335Z,62629.74
2019-04-27T04:23:12.584Z,62640.19
2019-04-27T04:25:41.019Z,62665.14
2019-04-27T04:28:09.272Z,62688.39
2019-04-27T04:30:35.236Z,62701.04
2019-04-27T04:33:01.513Z,62713.68
2019-04-27T04:35:32.605Z,62727.83
2019-04-27T04:37:56.063Z,62750.00
2019-04-27T04:43:29.676Z,62800.07
2019-04-27T04:46:15.698Z,62843.64
2019-04-27T04:48:41.920Z,62888.66
2019-04-27T04:51:10.139Z,62941.32
2019-04-27T04:56:39.218Z,63045.39
2019-04-27T04:59:05.492Z,63109.60
2019-04-27T05:01:31.753Z,63160.77
2019-04-27T05:03:59.044Z,63215.63
2019-04-27T05:06:26.240Z,63266.49
2019-04-27T05:09:33.766Z,63322.05
2019-04-27T05:12:00.025Z,63378.54
2019-04-27T05:14:28.910Z,63447.70
2019-04-27T05:16:55.291Z,63493.41
2019-04-27T05:19:21.622Z,63554.15
2019-04-27T05:21:49.129Z,63611.11
2019-04-27T05:26:44.661Z,63716.65
2019-04-27T05:29:10.928Z,63744.01
2019-04-27T05:31:38.827Z,63761.16
2019-04-27T05:34:06.862Z,63786.44
2019-04-27T05:36:33.526Z,63810.41
2019-04-27T05:38:59.872Z,63836.91
2019-04-27T05:41:26.338Z,63885.09
2019-04-27T05:44:13.046Z,63931.88
2019-04-27T05:46:59.149Z,63963.04
2019-04-27T05:49:45.174Z,64015.91
2019-04-27T05:52:31.160Z,64080.50
2019-04-27T05:57:51.711Z,64132.43
2019-04-27T06:03:14.824Z,64148.86
2019-04-27T06:05:41.072Z,64151.18
2019-04-27T06:08:08.723Z,64162.64
2019-04-27T06:11:16.797Z,64194.44
2019-04-27T06:13:43.050Z,64209.45
2019-04-27T06:16:09.576Z,64233.08
2019-04-27T06:18:39.131Z,64219.37
2019-04-27T06:23:40.717Z,64288.05
2019-04-27T06:26:09.167Z,64278.54
2019-04-27T06:28:35.138Z,64255.13
2019-04-27T06:31:01.420Z,64294.13
2019-04-27T06:33:33.882Z,64320.33
2019-04-27T06:35:55.844Z,64304.41
2019-04-27T06:38:22.110Z,64324.07
2019-04-27T06:40:49.024Z,64349.05
2019-04-27T06:45:44.602Z,64367.60
2019-04-27T06:48:10.868Z,64402.54
2019-04-27T06:50:38.860Z,64410.28
2019-04-27T06:53:05.319Z,64415.05
2019-04-27T06:56:12.892Z,64398.67
2019-04-27T06:58:40.788Z,64404.55
2019-04-27T07:01:09.512Z,64416.93
2019-04-27T07:03:35.500Z,64424.44
2019-04-27T07:06:01.750Z,64467.90
2019-04-27T07:08:28.659Z,64468.46
2019-04-27T07:10:56.243Z,64488.57
2019-04-27T07:13:22.572Z,64494.33
2019-04-27T07:15:48.857Z,64497.88
2019-04-27T07:18:15.142Z,64457.05
2019-04-27T07:20:41.407Z,64455.51
2019-04-27T07:23:09.409Z,64455.41
2019-04-27T07:25:35.879Z,64459.28
2019-04-27T07:28:02.135Z,64444.11
2019-04-27T07:30:28.827Z,64441.91
2019-04-27T07:32:56.564Z,64466.68
2019-04-27T07:35:22.817Z,64445.44
2019-04-27T07:37:49.100Z,64460.16
2019-04-27T07:40:15.366Z,64493.00
2019-04-27T07:50:24.512Z,64474.09
2019-04-27T07:52:50.782Z,64465.68
2019-04-27T07:55:18.560Z,64482.60
2019-04-27T07:57:45.199Z,64481.94
2019-04-27T08:00:11.643Z,64544.26
2019-04-27T08:02:38.993Z,64524.89
2019-04-27T08:05:06.091Z,64530.43
2019-04-27T08:07:32.342Z,64547.58
2019-04-27T08:10:19.336Z,64618.02
2019-04-27T08:12:46.494Z,64593.41
2019-04-27T08:15:12.744Z,64541.71
2019-04-27T08:17:42.389Z,64541.61
2019-04-27T08:20:49.133Z,64516.82
2019-04-27T08:23:15.538Z,64503.20
2019-04-27T08:25:41.817Z,64520.46
2019-04-27T08:31:15.442Z,64509.39
2019-04-27T08:33:41.706Z,64515.15
2019-04-27T08:36:08.978Z,64574.27
2019-04-27T08:38:36.149Z,64633.30
2019-04-27T08:41:02.486Z,64576.47
2019-04-27T08:43:29.072Z,64572.36
2019-04-27T08:46:00.113Z,64579.69
2019-04-27T08:48:44.778Z,64609.04
2019-04-27T08:51:11.028Z,64630.97
2019-04-27T08:53:37.276Z,64669.30
2019-04-27T08:56:03.524Z,64703.68
2019-04-27T08:58:29.801Z,64696.33
2019-04-27T09:00:56.057Z,64610.37
2019-04-27T09:03:22.330Z,64587.09
2019-04-27T09:05:49.485Z,64573.91
2019-04-27T09:11:43.721Z,64595.74
2019-04-27T09:14:29.724Z,64603.93
2019-04-27T09:17:15.753Z,64536.62
2019-04-27T09:20:01.754Z,64547.24
2019-04-27T09:22:28.935Z,64528.21
2019-04-27T09:24:56.183Z,64554.99
2019-04-27T09:27:22.481Z,64578.25
2019-04-27T09:29:50.008Z,64566.40
2019-04-27T09:34:51.391Z,64564.95
2019-04-27T09:37:17.678Z,64494.11
2019-04-27T09:39:45.909Z,64520.91
2019-04-27T09:42:12.117Z,64529.32
2019-04-27T09:44:38.421Z,64526.87
2019-04-27T09:47:06.107Z,64566.96
2019-04-27T09:49:32.845Z,64545.59
2019-04-27T09:51:59.104Z,64585.32
2019-04-27T09:54:27.082Z,64602.81
2019-04-27T09:56:53.521Z,64615.68
2019-04-27T09:59:19.781Z,64604.82
2019-04-27T10:01:46.497Z,64598.16
2019-04-27T10:04:12.905Z,64569.48
2019-04-27T10:06:39.170Z,64612.04
2019-04-27T10:12:02.038Z,64596.83
2019-04-27T10:14:28.311Z,64533.86
2019-04-27T10:16:55.781Z,64493.00
2019-04-27T10:19:31.114Z,64493.67
2019-04-27T10:21:50.903Z,64512.71
2019-04-27T10:24:17.186Z,64556.20
2019-04-27T10:26:43.853Z,64556.11
2019-04-27T10:29:11.594Z,64569.16
2019-04-27T10:31:37.881Z,64562.52
2019-04-27T10:34:05.875Z,64574.80
2019-04-27T10:36:52.056Z,64593.51
2019-04-27T10:39:18.320Z,64599.93
2019-04-27T10:41:46.168Z,64582.89
2019-04-27T10:46:50.803Z,64615.90
2019-04-27T10:49:17.052Z,64621.45
2019-04-27T10:51:43.354Z,64640.50
2019-04-27T10:54:09.636Z,64626.44
2019-04-27T10:56:36.824Z,64617.23
2019-04-27T11:01:57.872Z,64620.33
2019-04-27T11:04:46.207Z,64616.14
2019-04-27T11:10:01.451Z,64570.04
2019-04-27T11:12:28.729Z,64561.63
2019-04-27T11:14:55.362Z,64545.04
2019-04-27T11:17:21.870Z,64551.11
2019-04-27T11:19:48.594Z,64554.67
2019-04-27T11:22:15.986Z,64549.79
2019-04-27T11:24:43.070Z,64562.52
2019-04-27T11:27:09.533Z,64548.14
2019-04-27T11:29:36.117Z,64505.73
2019-04-27T11:32:17.303Z,64477.29
2019-04-27T11:35:03.352Z,64455.62
2019-04-27T11:37:49.375Z,64471.21
2019-04-27T11:43:16.630Z,64460.71
2019-04-27T11:45:42.917Z,64459.50
2019-04-27T11:48:09.172Z,64458.06
2019-04-27T11:50:35.876Z,64434.27
2019-04-27T11:53:03.575Z,64428.65
2019-04-27T11:55:29.815Z,64464.03
2019-04-27T11:57:56.097Z,64451.86
2019-04-27T12:03:36.205Z,64423.55
2019-04-27T12:06:02.468Z,64408.42
2019-04-27T12:08:28.728Z,64376.45
2019-04-27T12:10:55.691Z,64407.62
2019-04-27T12:13:23.131Z,64422.68
2019-04-27T12:15:49.376Z,64418.68
2019-04-27T12:18:15.628Z,64367.05
2019-04-27T12:20:41.852Z,64337.66
2019-04-27T12:23:08.116Z,64319.43
2019-04-27T12:25:37.090Z,64330.27
2019-04-27T12:28:22.384Z,64330.27
2019-04-27T12:31:09.138Z,64341.87
2019-04-27T12:33:35.788Z,64341.87
2019-04-27T12:36:03.606Z,64299.33
2019-04-27T12:38:29.848Z,64289.16
2019-04-27T12:40:56.557Z,64294.13
2019-04-27T12:43:24.290Z,64265.64
2019-04-27T12:45:50.548Z,64252.16
2019-04-27T12:48:16.778Z,64260.21
2019-04-27T12:50:43.146Z,64223.79
2019-04-27T12:53:29.155Z,64222.91
2019-04-27T12:56:16.646Z,64222.91
2019-04-27T13:01:36.942Z,64206.48
2019-04-27T13:04:03.293Z,64198.30
2019-04-27T13:06:29.569Z,64167.27
2019-04-27T13:08:55.924Z,64167.27
2019-04-27T13:11:22.982Z,64171.26
2019-04-27T13:13:50.326Z,64176.79
2019-04-27T13:16:16.720Z,64191.47
2019-04-27T13:18:42.943Z,64211.43
2019-04-27T13:21:09.194Z,64207.59
2019-04-27T13:23:37.147Z,64213.31
2019-04-27T13:26:16.859Z,64196.87
2019-04-27T13:28:43.120Z,64191.90
2019-04-27T13:31:09.389Z,64191.90
2019-04-27T13:33:36.455Z,64189.04
2019-04-27T13:36:07.278Z,64226.89
2019-04-27T13:38:31.980Z,64226.89
2019-04-27T13:41:27.752Z,64214.74
2019-04-27T13:43:46.212Z,64164.41
2019-04-27T13:49:05.971Z,64123.18
2019-04-27T13:54:18.527Z,64139.04
2019-04-27T13:56:34.537Z,64120.96
2019-04-27T13:59:01.209Z,64104.43
2019-04-27T14:01:28.985Z,64100.25
2019-04-27T14:03:55.217Z,64096.26
2019-04-27T14:06:21.477Z,64077.09
2019-04-27T14:08:47.739Z,64054.17
2019-04-27T14:11:14.881Z,64034.30
2019-04-27T14:13:41.144Z,64026.04
2019-04-27T14:16:08.740Z,64032.32
2019-04-27T14:18:35.569Z,64031.45
2019-04-27T14:21:01.816Z,64023.50
2019-04-27T14:23:48.468Z,64014.36
2019-04-27T14:26:14.770Z,63983.63
2019-04-27T14:28:41.079Z,63973.38
2019-04-27T14:31:08.980Z,63961.61
2019-04-27T14:36:03.470Z,63960.18
2019-04-27T14:38:51.315Z,63954.68
2019-04-27T14:41:19.162Z,63947.09
2019-04-27T14:46:45.086Z,63929.12
2019-04-27T14:49:11.355Z,63922.43
2019-04-27T14:51:39.873Z,63919.79
2019-04-27T14:56:33.878Z,63868.38
2019-04-27T14:59:00.179Z,63845.62
2019-04-27T15:01:26.537Z,63844.05
2019-04-27T15:03:52.918Z,63842.85
2019-04-27T15:06:19.818Z,63827.12
2019-04-27T15:08:49.051Z,63821.60
2019-04-27T15:11:19.208Z,63812.51
2019-04-27T15:16:11.722Z,63792.36
2019-04-27T15:21:25.669Z,63772.04
2019-04-27T15:23:51.958Z,63776.55
2019-04-27T15:34:45.035Z,63779.18
2019-04-27T15:40:49.320Z,63755.65
2019-04-27T15:46:03.715Z,63741.25
2019-04-27T15:48:38.508Z,63741.57
2019-04-27T15:51:14.746Z,63726.43
2019-04-27T15:53:33.525Z,63725.75
2019-04-27T15:56:01.796Z,63708.86
2019-04-27T16:01:43.990Z,63707.94
2019-04-27T16:04:11.291Z,63694.33
2019-04-27T16:06:38.568Z,63681.94
2019-04-27T16:09:46.128Z,63682.26
2019-04-27T16:12:12.897Z,63676.55
2019-04-27T16:14:44.022Z,63665.68
2019-04-27T16:17:22.171Z,63659.19
2019-04-27T16:20:08.213Z,63654.59
2019-04-27T16:22:34.463Z,63642.96
2019-04-27T16:25:03.697Z,63639.97
2019-04-27T16:27:41.819Z,63634.61
2019-04-27T16:30:11.587Z,63624.18
2019-04-27T16:32:36.424Z,63613.55
2019-04-27T16:35:24.235Z,63608.61
2019-04-27T16:38:10.321Z,63610.68
2019-04-27T16:40:36.710Z,63607.73
2019-04-27T16:43:02.966Z,63602.99
2019-04-27T16:45:29.249Z,63592.68
2019-04-27T16:47:56.478Z,63590.70
2019-04-27T16:53:05.014Z,63588.24
2019-04-27T16:55:34.148Z,63580.61
2019-04-27T16:57:59.962Z,63574.03
2019-04-27T17:00:30.217Z,63565.70
2019-04-27T17:02:59.841Z,63568.30
2019-04-27T17:05:30.927Z,63559.08
2019-04-27T17:07:52.887Z,63550.22
2019-04-27T17:10:25.427Z,63545.92
2019-04-27T17:12:41.335Z,63590.02
2019-04-27T17:12:48.632Z,63533.85
2019-04-27T17:18:35.555Z,63517.75
2019-04-27T17:21:15.812Z,63509.32
2019-04-27T17:23:31.619Z,63507.32
2019-04-27T17:26:21.844Z,63498.76
2019-04-27T17:29:10.951Z,63491.23
2019-04-27T17:34:25.365Z,63481.34
2019-04-27T17:36:54.701Z,63475.96
2019-04-27T17:39:23.476Z,63467.73
2019-04-27T17:41:52.063Z,63458.54
2019-04-27T17:44:19.267Z,63452.85
2019-04-27T17:46:49.444Z,63448.43
2019-04-27T17:49:12.581Z,63443.54
2019-04-27T17:51:42.952Z,63446.91
2019-04-27T17:54:11.143Z,63438.92
2019-04-27T17:59:03.338Z,63427.53
2019-04-27T18:01:31.928Z,63419.30
2019-04-27T18:06:32.409Z,63387.32
2019-04-27T18:09:00.850Z,63382.38
2019-04-27T18:11:28.773Z,63369.80
2019-04-27T18:16:34.034Z,63350.97
2019-04-27T18:29:08.395Z,63288.46
2019-04-27T18:31:34.673Z,63295.02
2019-04-27T18:34:00.935Z,63289.13
2019-04-27T18:36:27.229Z,63277.09
2019-04-27T18:38:53.464Z,63276.62
2019-04-27T18:41:19.763Z,63263.96
2019-04-27T18:43:51.087Z,63260.46
2019-04-27T18:46:14.741Z,63253.78
2019-04-27T18:51:42.545Z,63250.38
2019-04-27T18:54:08.783Z,63235.53
2019-04-27T18:56:40.066Z,63230.48
2019-04-27T18:59:03.205Z,63226.22
2019-04-27T19:01:29.462Z,63224.04
2019-04-27T19:03:55.736Z,63217.81
2019-04-27T19:06:22.038Z,63218.45
2019-04-27T19:08:48.794Z,63152.45
2019-04-27T19:11:16.419Z,63186.03
2019-04-27T19:13:42.720Z,63170.39
2019-04-27T19:16:09.138Z,63162.95
2019-04-27T19:18:35.394Z,63162.48
2019-04-27T19:21:01.639Z,63160.73
2019-04-27T19:26:22.269Z,63096.70
2019-04-27T19:29:08.674Z,63134.82
2019-04-27T19:34:28.774Z,63100.32
2019-04-27T19:36:54.993Z,63094.32
2019-04-27T19:39:40.993Z,63089.07
2019-04-27T19:42:07.236Z,63097.13
2019-04-27T19:44:33.484Z,63090.38
2019-04-27T19:47:00.340Z,63081.83
2019-04-27T19:49:31.244Z,63054.34
2019-04-27T19:51:56.106Z,63067.09
2019-04-27T19:54:22.375Z,63061.76
2019-04-27T19:56:50.005Z,63057.07
2019-04-27T19:59:38.085Z,63063.41
2019-04-27T20:07:35.106Z,63055.01
2019-04-27T20:12:40.951Z,63042.53
2019-04-27T20:15:48.436Z,63030.58
2019-04-27T20:18:14.688Z,63037.00
2019-04-27T20:20:41.257Z,63046.47
2019-04-27T20:23:07.506Z,63058.69
2019-04-27T20:25:33.771Z,63050.44
2019-04-27T20:28:00.906Z,63036.78
2019-04-27T20:30:28.214Z,63048.67
2019-04-27T20:32:54.464Z,63044.85
2019-04-27T20:35:21.969Z,63055.09
2019-04-27T20:37:48.977Z,63048.67
2019-04-27T20:40:15.329Z,63047.77
2019-04-27T20:42:41.690Z,63036.86
2019-04-27T20:45:49.222Z,63036.66
2019-04-27T20:48:15.471Z,63029.56
2019-04-27T20:50:41.730Z,63029.28
2019-04-27T20:55:55.651Z,63018.77
2019-04-27T20:58:21.909Z,63022.67
2019-04-27T21:00:48.218Z,63006.98
2019-04-27T21:03:34.240Z,62993.89
2019-04-27T21:06:21.213Z,62983.11
2019-04-27T21:08:47.593Z,62985.04
2019-04-27T21:11:13.946Z,63000.64
2019-04-27T21:13:40.215Z,62996.82
2019-04-27T21:16:06.465Z,62989.95
2019-04-27T21:18:32.718Z,62978.27
2019-04-27T21:20:58.962Z,62969.84
2019-04-27T21:23:25.213Z,62955.03
2019-04-27T21:25:53.543Z,62940.86
2019-04-27T21:28:33.077Z,62933.49
2019-04-27T21:30:59.346Z,62926.48
2019-04-27T21:33:25.612Z,62889.41
2019-04-27T21:35:51.873Z,62913.18
2019-04-27T21:38:18.125Z,62902.82
2019-04-27T21:41:04.124Z,62907.82
2019-04-27T21:43:30.386Z,62903.80
2019-04-27T21:45:56.640Z,62903.57
2019-04-27T21:48:22.904Z,62900.98
2019-04-27T21:50:49.173Z,62887.04
2019-04-27T21:56:11.224Z,62872.87
2019-04-27T21:58:37.579Z,62872.77
2019-04-27T22:03:58.489Z,62882.32
2019-04-27T22:06:24.735Z,62867.61
2019-04-27T22:08:51.277Z,62861.62
2019-04-27T22:11:19.146Z,62858.78
2019-04-27T22:13:45.391Z,62857.18
2019-04-27T22:16:13.068Z,62857.18
2019-04-27T22:18:41.536Z,62849.30
2019-04-27T22:21:07.985Z,62836.02
2019-04-27T22:23:53.974Z,62818.44
2019-04-27T22:26:21.342Z,62819.61
2019-04-27T22:28:49.525Z,62809.39
2019-04-27T22:33:52.512Z,62812.39
2019-04-27T22:36:18.811Z,62805.86
2019-04-27T22:38:45.055Z,62800.75
2019-04-27T22:41:31.444Z,62798.78
2019-04-27T22:44:17.460Z,62795.19
2019-04-27T22:47:03.669Z,62795.04
2019-04-27T22:49:31.273Z,62784.43
2019-04-27T22:51:58.080Z,62771.15
2019-04-27T22:54:24.317Z,62775.71
2019-04-27T23:02:40.821Z,62787.89
2019-04-27T23:05:20.949Z,62789.66
2019-04-27T23:07:47.272Z,62809.12
2019-04-27T23:10:13.522Z,62822.20
2019-04-27T23:12:41.818Z,62819.07
2019-04-27T23:23:38.241Z,62841.87
2019-04-27T23:26:04.521Z,62831.58
2019-04-27T23:28:31.381Z,62829.48
2019-04-27T23:31:20.536Z,62826.09
2019-04-27T23:39:51.675Z,62774.83
2019-04-27T23:42:17.940Z,62757.22
2019-04-27T23:44:44.663Z,62744.62
2019-04-27T23:47:10.910Z,62744.36
2019-04-27T23:49:37.160Z,62735.65
2019-04-27T23:54:52.015Z,62715.86
2019-04-27T23:57:18.294Z,62714.70
2019-04-27T23:59:44.543Z,62701.16
